sensor_id;sensor_type;location;lat;lon;timestamp;P1;durP1;ratioP1;P2;durP2;ratioP2
31368;SDS011;18004;48.416;10.066;2023-01-16T00:01:55;2.72;;;1.42;;
31368;SDS011;18004;48.416;10.066;2023-01-16T00:04:22;5.07;;;1.42;;
31368;SDS011;18004;48.416;10.066;2023-01-16T00:06:48;5.63;;;0.88;;
31368;SDS011;18004;48.416;10.066;2023-01-16T00:09:14;1.70;;;0.88;;
31368;SDS011;18004;48.416;10.066;2023-01-16T00:11:39;2.17;;;1.05;;
31368;SDS011;18004;48.416;10.066;2023-01-16T00:14:05;3.78;;;2.00;;
31368;SDS011;18004;48.416;10.066;2023-01-16T00:16:31;3.65;;;1.92;;
31368;SDS011;18004;48.416;10.066;2023-01-16T00:18:57;3.20;;;1.30;;
31368;SDS011;18004;48.416;10.066;2023-01-16T00:21:23;2.50;;;1.63;;
31368;SDS011;18004;48.416;10.066;2023-01-16T00:23:52;1.88;;;1.42;;
31368;SDS011;18004;48.416;10.066;2023-01-16T00:26:22;3.50;;;1.40;;
31368;SDS011;18004;48.416;10.066;2023-01-16T00:28:48;2.28;;;1.20;;
31368;SDS011;18004;48.416;10.066;2023-01-16T00:31:14;1.20;;;0.85;;
31368;SDS011;18004;48.416;10.066;2023-01-16T00:33:41;1.80;;;0.73;;
31368;SDS011;18004;48.416;10.066;2023-01-16T00:36:08;4.03;;;0.80;;
31368;SDS011;18004;48.416;10.066;2023-01-16T00:38:35;0.88;;;0.60;;
31368;SDS011;18004;48.416;10.066;2023-01-16T00:41:01;2.88;;;0.40;;
31368;SDS011;18004;48.416;10.066;2023-01-16T00:43:27;1.65;;;0.57;;
31368;SDS011;18004;48.416;10.066;2023-01-16T00:45:53;3.33;;;0.60;;
31368;SDS011;18004;48.416;10.066;2023-01-16T00:48:19;0.77;;;0.47;;
31368;SDS011;18004;48.416;10.066;2023-01-16T00:50:44;0.30;;;0.30;;
31368;SDS011;18004;48.416;10.066;2023-01-16T00:53:10;0.70;;;0.55;;
31368;SDS011;18004;48.416;10.066;2023-01-16T00:55:36;0.60;;;0.40;;
31368;SDS011;18004;48.416;10.066;2023-01-16T00:58:02;0.20;;;0.20;;
31368;SDS011;18004;48.416;10.066;2023-01-16T01:00:29;0.60;;;0.40;;
31368;SDS011;18004;48.416;10.066;2023-01-16T01:02:55;0.22;;;0.22;;
31368;SDS011;18004;48.416;10.066;2023-01-16T01:05:21;0.65;;;0.30;;
31368;SDS011;18004;48.416;10.066;2023-01-16T01:07:47;0.75;;;0.30;;
31368;SDS011;18004;48.416;10.066;2023-01-16T01:10:12;0.10;;;0.10;;
31368;SDS011;18004;48.416;10.066;2023-01-16T01:12:38;0.73;;;0.50;;
31368;SDS011;18004;48.416;10.066;2023-01-16T01:15:04;5.45;;;0.38;;
31368;SDS011;18004;48.416;10.066;2023-01-16T01:17:31;0.57;;;0.47;;
31368;SDS011;18004;48.416;10.066;2023-01-16T01:19:56;0.75;;;0.35;;
31368;SDS011;18004;48.416;10.066;2023-01-16T01:22:22;0.32;;;0.30;;
31368;SDS011;18004;48.416;10.066;2023-01-16T01:24:48;0.25;;;0.25;;
31368;SDS011;18004;48.416;10.066;2023-01-16T01:27:15;0.20;;;0.20;;
31368;SDS011;18004;48.416;10.066;2023-01-16T01:29:42;1.17;;;0.30;;
31368;SDS011;18004;48.416;10.066;2023-01-16T01:32:07;0.55;;;0.30;;
31368;SDS011;18004;48.416;10.066;2023-01-16T01:34:33;0.47;;;0.40;;
31368;SDS011;18004;48.416;10.066;2023-01-16T01:37:06;0.60;;;0.47;;
31368;SDS011;18004;48.416;10.066;2023-01-16T01:39:32;0.40;;;0.35;;
31368;SDS011;18004;48.416;10.066;2023-01-16T01:41:59;0.77;;;0.40;;
31368;SDS011;18004;48.416;10.066;2023-01-16T01:44:49;2.17;;;0.60;;
31368;SDS011;18004;48.416;10.066;2023-01-16T01:47:20;1.13;;;0.45;;
31368;SDS011;18004;48.416;10.066;2023-01-16T01:52:17;0.30;;;0.30;;
31368;SDS011;18004;48.416;10.066;2023-01-16T01:54:46;2.30;;;0.50;;
31368;SDS011;18004;48.416;10.066;2023-01-16T01:57:28;0.30;;;0.30;;
31368;SDS011;18004;48.416;10.066;2023-01-16T02:00:00;1.73;;;0.50;;
31368;SDS011;18004;48.416;10.066;2023-01-16T02:02:32;0.30;;;0.30;;
31368;SDS011;18004;48.416;10.066;2023-01-16T02:05:01;0.20;;;0.20;;
31368;SDS011;18004;48.416;10.066;2023-01-16T02:07:30;0.55;;;0.40;;
31368;SDS011;18004;48.416;10.066;2023-01-16T02:10:00;1.17;;;0.40;;
31368;SDS011;18004;48.416;10.066;2023-01-16T02:12:49;0.65;;;0.40;;
31368;SDS011;18004;48.416;10.066;2023-01-16T02:15:16;6.65;;;0.43;;
31368;SDS011;18004;48.416;10.066;2023-01-16T02:17:43;1.35;;;0.28;;
31368;SDS011;18004;48.416;10.066;2023-01-16T02:20:28;0.32;;;0.30;;
31368;SDS011;18004;48.416;10.066;2023-01-16T02:23:18;0.20;;;0.20;;
31368;SDS011;18004;48.416;10.066;2023-01-16T02:26:24;0.25;;;0.25;;
31368;SDS011;18004;48.416;10.066;2023-01-16T02:37:54;1.02;;;0.38;;
31368;SDS011;18004;48.416;10.066;2023-01-16T02:40:35;0.25;;;0.25;;
31368;SDS011;18004;48.416;10.066;2023-01-16T02:43:21;0.15;;;0.15;;
31368;SDS011;18004;48.416;10.066;2023-01-16T02:48:46;0.35;;;0.20;;
31368;SDS011;18004;48.416;10.066;2023-01-16T02:51:23;0.38;;;0.30;;
31368;SDS011;18004;48.416;10.066;2023-01-16T02:56:52;1.55;;;0.30;;
31368;SDS011;18004;48.416;10.066;2023-01-16T02:59:41;0.32;;;0.20;;
31368;SDS011;18004;48.416;10.066;2023-01-16T03:02:07;0.50;;;0.30;;
31368;SDS011;18004;48.416;10.066;2023-01-16T03:13:03;0.45;;;0.30;;
31368;SDS011;18004;48.416;10.066;2023-01-16T03:26:58;0.20;;;0.20;;
31368;SDS011;18004;48.416;10.066;2023-01-16T03:29:33;0.50;;;0.30;;
31368;SDS011;18004;48.416;10.066;2023-01-16T03:32:07;0.40;;;0.30;;
31368;SDS011;18004;48.416;10.066;2023-01-16T03:37:24;0.20;;;0.20;;
31368;SDS011;18004;48.416;10.066;2023-01-16T03:39:56;7.30;;;0.40;;
31368;SDS011;18004;48.416;10.066;2023-01-16T03:42:28;0.40;;;0.22;;
31368;SDS011;18004;48.416;10.066;2023-01-16T03:45:01;0.22;;;0.22;;
31368;SDS011;18004;48.416;10.066;2023-01-16T03:47:41;3.72;;;0.28;;
31368;SDS011;18004;48.416;10.066;2023-01-16T03:50:12;0.50;;;0.40;;
31368;SDS011;18004;48.416;10.066;2023-01-16T03:52:41;0.50;;;0.30;;
31368;SDS011;18004;48.416;10.066;2023-01-16T03:57:43;0.20;;;0.20;;
31368;SDS011;18004;48.416;10.066;2023-01-16T04:00:33;4.18;;;0.40;;
31368;SDS011;18004;48.416;10.066;2023-01-16T04:03:13;0.52;;;0.32;;
31368;SDS011;18004;48.416;10.066;2023-01-16T04:05:49;0.40;;;0.30;;
31368;SDS011;18004;48.416;10.066;2023-01-16T04:08:26;1.40;;;0.38;;
31368;SDS011;18004;48.416;10.066;2023-01-16T04:10:55;1.13;;;0.30;;
31368;SDS011;18004;48.416;10.066;2023-01-16T04:13:23;0.40;;;0.32;;
31368;SDS011;18004;48.416;10.066;2023-01-16T04:15:58;0.47;;;0.30;;
31368;SDS011;18004;48.416;10.066;2023-01-16T04:18:28;0.65;;;0.30;;
31368;SDS011;18004;48.416;10.066;2023-01-16T04:20:57;4.13;;;0.47;;
31368;SDS011;18004;48.416;10.066;2023-01-16T04:23:23;2.05;;;0.75;;
31368;SDS011;18004;48.416;10.066;2023-01-16T04:25:49;2.05;;;0.90;;
31368;SDS011;18004;48.416;10.066;2023-01-16T04:28:16;2.45;;;0.80;;
31368;SDS011;18004;48.416;10.066;2023-01-16T04:30:41;1.70;;;0.75;;
31368;SDS011;18004;48.416;10.066;2023-01-16T04:33:07;1.55;;;0.65;;
31368;SDS011;18004;48.416;10.066;2023-01-16T04:35:33;0.95;;;0.85;;
31368;SDS011;18004;48.416;10.066;2023-01-16T04:37:59;0.90;;;0.60;;
31368;SDS011;18004;48.416;10.066;2023-01-16T04:40:24;0.80;;;0.60;;
31368;SDS011;18004;48.416;10.066;2023-01-16T04:42:51;1.50;;;0.45;;
31368;SDS011;18004;48.416;10.066;2023-01-16T04:45:17;0.88;;;0.30;;
31368;SDS011;18004;48.416;10.066;2023-01-16T04:47:49;1.08;;;0.45;;
31368;SDS011;18004;48.416;10.066;2023-01-16T04:50:16;0.60;;;0.40;;
31368;SDS011;18004;48.416;10.066;2023-01-16T04:52:43;0.77;;;0.45;;
31368;SDS011;18004;48.416;10.066;2023-01-16T04:55:09;0.88;;;0.47;;
31368;SDS011;18004;48.416;10.066;2023-01-16T04:57:35;0.52;;;0.40;;
31368;SDS011;18004;48.416;10.066;2023-01-16T05:00:02;3.20;;;0.55;;
31368;SDS011;18004;48.416;10.066;2023-01-16T05:02:30;4.20;;;0.50;;
31368;SDS011;18004;48.416;10.066;2023-01-16T05:04:56;3.20;;;0.60;;
31368;SDS011;18004;48.416;10.066;2023-01-16T05:07:21;0.40;;;0.40;;
31368;SDS011;18004;48.416;10.066;2023-01-16T05:09:47;0.40;;;0.40;;
31368;SDS011;18004;48.416;10.066;2023-01-16T05:12:13;0.80;;;0.52;;
31368;SDS011;18004;48.416;10.066;2023-01-16T05:14:39;1.77;;;0.50;;
31368;SDS011;18004;48.416;10.066;2023-01-16T05:17:04;0.43;;;0.40;;
31368;SDS011;18004;48.416;10.066;2023-01-16T05:19:30;0.35;;;0.35;;
31368;SDS011;18004;48.416;10.066;2023-01-16T05:21:56;0.38;;;0.38;;
31368;SDS011;18004;48.416;10.066;2023-01-16T05:24:21;1.30;;;0.52;;
31368;SDS011;18004;48.416;10.066;2023-01-16T05:26:47;0.60;;;0.50;;
31368;SDS011;18004;48.416;10.066;2023-01-16T05:29:13;0.25;;;0.25;;
31368;SDS011;18004;48.416;10.066;2023-01-16T05:31:38;0.73;;;0.57;;
31368;SDS011;18004;48.416;10.066;2023-01-16T05:34:04;0.50;;;0.35;;
31368;SDS011;18004;48.416;10.066;2023-01-16T05:36:30;2.25;;;0.40;;
31368;SDS011;18004;48.416;10.066;2023-01-16T05:38:56;0.57;;;0.50;;
31368;SDS011;18004;48.416;10.066;2023-01-16T05:41:21;0.90;;;0.68;;
31368;SDS011;18004;48.416;10.066;2023-01-16T05:43:47;1.52;;;0.60;;
31368;SDS011;18004;48.416;10.066;2023-01-16T05:46:13;0.98;;;0.43;;
31368;SDS011;18004;48.416;10.066;2023-01-16T05:48:39;0.82;;;0.57;;
31368;SDS011;18004;48.416;10.066;2023-01-16T05:51:04;0.47;;;0.47;;
31368;SDS011;18004;48.416;10.066;2023-01-16T05:53:30;1.77;;;0.50;;
31368;SDS011;18004;48.416;10.066;2023-01-16T05:55:57;1.27;;;0.60;;
31368;SDS011;18004;48.416;10.066;2023-01-16T05:58:23;0.57;;;0.57;;
31368;SDS011;18004;48.416;10.066;2023-01-16T06:00:49;6.85;;;0.90;;
31368;SDS011;18004;48.416;10.066;2023-01-16T06:03:15;1.00;;;0.85;;
31368;SDS011;18004;48.416;10.066;2023-01-16T06:05:41;0.65;;;0.57;;
31368;SDS011;18004;48.416;10.066;2023-01-16T06:08:07;0.65;;;0.40;;
31368;SDS011;18004;48.416;10.066;2023-01-16T06:10:33;0.85;;;0.60;;
31368;SDS011;18004;48.416;10.066;2023-01-16T06:12:59;0.47;;;0.40;;
31368;SDS011;18004;48.416;10.066;2023-01-16T06:15:26;1.15;;;0.50;;
31368;SDS011;18004;48.416;10.066;2023-01-16T06:17:52;2.00;;;1.17;;
31368;SDS011;18004;48.416;10.066;2023-01-16T06:20:19;2.75;;;1.52;;
31368;SDS011;18004;48.416;10.066;2023-01-16T06:22:45;6.13;;;3.03;;
31368;SDS011;18004;48.416;10.066;2023-01-16T06:25:11;3.60;;;2.80;;
31368;SDS011;18004;48.416;10.066;2023-01-16T06:27:37;5.70;;;2.03;;
31368;SDS011;18004;48.416;10.066;2023-01-16T06:30:03;9.88;;;4.00;;
31368;SDS011;18004;48.416;10.066;2023-01-16T06:32:34;6.20;;;3.03;;
31368;SDS011;18004;48.416;10.066;2023-01-16T06:34:59;2.85;;;1.77;;
31368;SDS011;18004;48.416;10.066;2023-01-16T06:37:25;2.95;;;1.80;;
31368;SDS011;18004;48.416;10.066;2023-01-16T06:39:51;2.33;;;1.90;;
31368;SDS011;18004;48.416;10.066;2023-01-16T06:42:17;4.40;;;1.42;;
31368;SDS011;18004;48.416;10.066;2023-01-16T06:44:42;1.52;;;1.42;;
31368;SDS011;18004;48.416;10.066;2023-01-16T06:47:09;3.20;;;1.58;;
31368;SDS011;18004;48.416;10.066;2023-01-16T06:49:34;2.88;;;1.90;;
31368;SDS011;18004;48.416;10.066;2023-01-16T06:52:00;2.45;;;1.80;;
31368;SDS011;18004;48.416;10.066;2023-01-16T06:54:26;4.25;;;1.85;;
31368;SDS011;18004;48.416;10.066;2023-01-16T06:56:52;4.90;;;1.90;;
31368;SDS011;18004;48.416;10.066;2023-01-16T06:59:18;2.30;;;2.08;;
31368;SDS011;18004;48.416;10.066;2023-01-16T07:01:43;1.60;;;1.38;;
31368;SDS011;18004;48.416;10.066;2023-01-16T07:04:09;2.85;;;1.92;;
31368;SDS011;18004;48.416;10.066;2023-01-16T07:06:35;6.90;;;2.33;;
31368;SDS011;18004;48.416;10.066;2023-01-16T07:09:02;3.58;;;1.92;;
31368;SDS011;18004;48.416;10.066;2023-01-16T07:11:28;3.83;;;2.08;;
31368;SDS011;18004;48.416;10.066;2023-01-16T07:13:54;4.18;;;1.58;;
31368;SDS011;18004;48.416;10.066;2023-01-16T07:16:39;3.17;;;1.95;;
31368;SDS011;18004;48.416;10.066;2023-01-16T07:19:24;2.47;;;1.98;;
31368;SDS011;18004;48.416;10.066;2023-01-16T07:22:10;3.47;;;1.65;;
31368;SDS011;18004;48.416;10.066;2023-01-16T07:24:57;2.17;;;1.65;;
31368;SDS011;18004;48.416;10.066;2023-01-16T07:27:26;2.38;;;1.75;;
31368;SDS011;18004;48.416;10.066;2023-01-16T07:29:52;4.93;;;2.15;;
31368;SDS011;18004;48.416;10.066;2023-01-16T07:32:18;3.50;;;2.05;;
31368;SDS011;18004;48.416;10.066;2023-01-16T07:34:44;4.18;;;2.15;;
31368;SDS011;18004;48.416;10.066;2023-01-16T07:37:10;2.70;;;2.17;;
31368;SDS011;18004;48.416;10.066;2023-01-16T07:39:36;2.45;;;1.80;;
31368;SDS011;18004;48.416;10.066;2023-01-16T07:42:03;3.83;;;2.50;;
31368;SDS011;18004;48.416;10.066;2023-01-16T07:44:29;4.72;;;3.60;;
31368;SDS011;18004;48.416;10.066;2023-01-16T07:46:55;4.13;;;3.72;;
31368;SDS011;18004;48.416;10.066;2023-01-16T07:49:21;9.63;;;4.85;;
31368;SDS011;18004;48.416;10.066;2023-01-16T07:51:47;3.80;;;3.30;;
31368;SDS011;18004;48.416;10.066;2023-01-16T07:54:12;4.80;;;3.47;;
31368;SDS011;18004;48.416;10.066;2023-01-16T07:56:39;5.40;;;3.95;;
31368;SDS011;18004;48.416;10.066;2023-01-16T07:59:05;5.32;;;3.10;;
31368;SDS011;18004;48.416;10.066;2023-01-16T08:01:31;3.28;;;2.42;;
31368;SDS011;18004;48.416;10.066;2023-01-16T08:03:57;3.85;;;3.35;;
31368;SDS011;18004;48.416;10.066;2023-01-16T08:06:22;10.45;;;3.13;;
31368;SDS011;18004;48.416;10.066;2023-01-16T08:08:48;4.25;;;3.28;;
31368;SDS011;18004;48.416;10.066;2023-01-16T08:11:14;5.63;;;4.32;;
31368;SDS011;18004;48.416;10.066;2023-01-16T08:13:58;6.72;;;4.00;;
31368;SDS011;18004;48.416;10.066;2023-01-16T08:16:24;5.40;;;3.95;;
31368;SDS011;18004;48.416;10.066;2023-01-16T08:18:50;8.63;;;4.28;;
31368;SDS011;18004;48.416;10.066;2023-01-16T08:21:16;5.30;;;3.65;;
31368;SDS011;18004;48.416;10.066;2023-01-16T08:23:42;4.53;;;3.72;;
31368;SDS011;18004;48.416;10.066;2023-01-16T08:26:09;3.28;;;2.97;;
31368;SDS011;18004;48.416;10.066;2023-01-16T08:28:35;3.72;;;2.30;;
31368;SDS011;18004;48.416;10.066;2023-01-16T08:31:08;3.28;;;2.88;;
31368;SDS011;18004;48.416;10.066;2023-01-16T08:33:38;3.72;;;2.53;;
31368;SDS011;18004;48.416;10.066;2023-01-16T08:36:05;1.85;;;1.75;;
31368;SDS011;18004;48.416;10.066;2023-01-16T08:38:32;6.90;;;2.40;;
31368;SDS011;18004;48.416;10.066;2023-01-16T08:40:58;3.67;;;2.33;;
31368;SDS011;18004;48.416;10.066;2023-01-16T08:43:24;3.22;;;2.42;;
31368;SDS011;18004;48.416;10.066;2023-01-16T08:46:18;4.00;;;2.40;;
31368;SDS011;18004;48.416;10.066;2023-01-16T08:49:05;5.03;;;1.92;;
31368;SDS011;18004;48.416;10.066;2023-01-16T08:51:55;1.88;;;1.58;;
31368;SDS011;18004;48.416;10.066;2023-01-16T08:54:21;2.78;;;1.20;;
31368;SDS011;18004;48.416;10.066;2023-01-16T08:56:46;1.77;;;1.20;;
31368;SDS011;18004;48.416;10.066;2023-01-16T08:59:12;3.78;;;1.35;;
31368;SDS011;18004;48.416;10.066;2023-01-16T09:01:39;1.40;;;1.20;;
31368;SDS011;18004;48.416;10.066;2023-01-16T09:04:06;2.55;;;1.83;;
31368;SDS011;18004;48.416;10.066;2023-01-16T09:06:33;3.13;;;2.17;;
31368;SDS011;18004;48.416;10.066;2023-01-16T09:09:04;2.67;;;1.58;;
31368;SDS011;18004;48.416;10.066;2023-01-16T09:11:31;3.13;;;1.60;;
31368;SDS011;18004;48.416;10.066;2023-01-16T09:14:16;0.85;;;0.85;;
31368;SDS011;18004;48.416;10.066;2023-01-16T09:16:42;3.63;;;1.13;;
31368;SDS011;18004;48.416;10.066;2023-01-16T09:19:08;5.60;;;1.77;;
31368;SDS011;18004;48.416;10.066;2023-01-16T09:21:34;5.93;;;2.80;;
31368;SDS011;18004;48.416;10.066;2023-01-16T09:24:00;2.88;;;1.85;;
31368;SDS011;18004;48.416;10.066;2023-01-16T09:26:30;1.73;;;1.30;;
31368;SDS011;18004;48.416;10.066;2023-01-16T09:28:56;1.15;;;0.80;;
31368;SDS011;18004;48.416;10.066;2023-01-16T09:31:22;1.23;;;1.13;;
31368;SDS011;18004;48.416;10.066;2023-01-16T09:33:48;1.27;;;1.17;;
31368;SDS011;18004;48.416;10.066;2023-01-16T09:36:14;3.75;;;1.85;;
31368;SDS011;18004;48.416;10.066;2023-01-16T09:38:40;1.85;;;1.00;;
31368;SDS011;18004;48.416;10.066;2023-01-16T09:41:08;1.10;;;1.00;;
31368;SDS011;18004;48.416;10.066;2023-01-16T09:43:59;2.40;;;1.52;;
31368;SDS011;18004;48.416;10.066;2023-01-16T09:46:27;1.73;;;0.90;;
31368;SDS011;18004;48.416;10.066;2023-01-16T09:48:59;0.98;;;0.70;;
31368;SDS011;18004;48.416;10.066;2023-01-16T09:51:39;3.35;;;0.80;;
31368;SDS011;18004;48.416;10.066;2023-01-16T09:54:28;1.30;;;0.50;;
31368;SDS011;18004;48.416;10.066;2023-01-16T09:57:19;0.73;;;0.70;;
31368;SDS011;18004;48.416;10.066;2023-01-16T10:00:05;2.08;;;0.93;;
31368;SDS011;18004;48.416;10.066;2023-01-16T10:02:34;1.42;;;0.70;;
31368;SDS011;18004;48.416;10.066;2023-01-16T10:05:01;0.68;;;0.60;;
31368;SDS011;18004;48.416;10.066;2023-01-16T10:10:26;3.72;;;0.98;;
31368;SDS011;18004;48.416;10.066;2023-01-16T10:26:28;3.53;;;0.95;;
31368;SDS011;18004;48.416;10.066;2023-01-16T10:29:09;2.92;;;1.33;;
31368;SDS011;18004;48.416;10.066;2023-01-16T10:31:57;0.70;;;0.70;;
31368;SDS011;18004;48.416;10.066;2023-01-16T10:34:33;2.90;;;1.17;;
31368;SDS011;18004;48.416;10.066;2023-01-16T10:37:22;1.17;;;1.00;;
31368;SDS011;18004;48.416;10.066;2023-01-16T10:39:49;1.63;;;0.88;;
31368;SDS011;18004;48.416;10.066;2023-01-16T10:42:17;0.90;;;0.70;;
31368;SDS011;18004;48.416;10.066;2023-01-16T10:48:12;2.08;;;1.00;;
31368;SDS011;18004;48.416;10.066;2023-01-16T10:50:59;6.35;;;1.60;;
31368;SDS011;18004;48.416;10.066;2023-01-16T10:53:26;9.50;;;5.07;;
31368;SDS011;18004;48.416;10.066;2023-01-16T10:55:52;1.85;;;1.63;;
31368;SDS011;18004;48.416;10.066;2023-01-16T10:58:36;2.78;;;1.90;;
31368;SDS011;18004;48.416;10.066;2023-01-16T11:01:18;9.52;;;1.40;;
31368;SDS011;18004;48.416;10.066;2023-01-16T11:03:50;3.08;;;1.50;;
31368;SDS011;18004;48.416;10.066;2023-01-16T11:06:22;1.15;;;0.93;;
31368;SDS011;18004;48.416;10.066;2023-01-16T11:08:54;0.90;;;0.70;;
31368;SDS011;18004;48.416;10.066;2023-01-16T11:11:30;2.95;;;0.82;;
31368;SDS011;18004;48.416;10.066;2023-01-16T11:14:26;1.98;;;0.80;;
31368;SDS011;18004;48.416;10.066;2023-01-16T11:20:19;1.00;;;0.70;;
31368;SDS011;18004;48.416;10.066;2023-01-16T11:22:50;9.90;;;1.20;;
31368;SDS011;18004;48.416;10.066;2023-01-16T11:25:38;5.18;;;0.77;;
31368;SDS011;18004;48.416;10.066;2023-01-16T11:28:06;1.05;;;0.70;;
31368;SDS011;18004;48.416;10.066;2023-01-16T11:30:39;1.88;;;0.70;;
31368;SDS011;18004;48.416;10.066;2023-01-16T11:33:13;1.02;;;0.68;;
31368;SDS011;18004;48.416;10.066;2023-01-16T11:36:00;1.20;;;0.70;;
31368;SDS011;18004;48.416;10.066;2023-01-16T11:38:29;0.73;;;0.55;;
31368;SDS011;18004;48.416;10.066;2023-01-16T11:40:58;1.10;;;0.63;;
31368;SDS011;18004;48.416;10.066;2023-01-16T11:43:26;5.70;;;0.70;;
31368;SDS011;18004;48.416;10.066;2023-01-16T11:48:53;2.83;;;0.65;;
31368;SDS011;18004;48.416;10.066;2023-01-16T11:51:30;6.25;;;3.10;;
31368;SDS011;18004;48.416;10.066;2023-01-16T11:53:58;11.02;;;4.43;;
31368;SDS011;18004;48.416;10.066;2023-01-16T12:02:28;2.97;;;1.98;;
31368;SDS011;18004;48.416;10.066;2023-01-16T12:15:04;5.50;;;2.85;;
31368;SDS011;18004;48.416;10.066;2023-01-16T12:20:41;4.53;;;3.17;;
31368;SDS011;18004;48.416;10.066;2023-01-16T12:31:51;3.78;;;2.47;;
31368;SDS011;18004;48.416;10.066;2023-01-16T12:42:40;3.47;;;1.40;;
31368;SDS011;18004;48.416;10.066;2023-01-16T12:45:52;2.78;;;1.38;;
31368;SDS011;18004;48.416;10.066;2023-01-16T12:58:45;2.30;;;1.58;;
31368;SDS011;18004;48.416;10.066;2023-01-16T13:06:54;2.77;;;1.57;;
31368;SDS011;18004;48.416;10.066;2023-01-16T13:09:22;1.15;;;0.80;;
31368;SDS011;18004;48.416;10.066;2023-01-16T13:12:17;7.05;;;1.20;;
31368;SDS011;18004;48.416;10.066;2023-01-16T13:15:13;6.28;;;2.05;;
31368;SDS011;18004;48.416;10.066;2023-01-16T13:17:46;4.10;;;1.65;;
31368;SDS011;18004;48.416;10.066;2023-01-16T13:20:20;3.00;;;1.30;;
31368;SDS011;18004;48.416;10.066;2023-01-16T13:22:51;9.95;;;1.95;;
31368;SDS011;18004;48.416;10.066;2023-01-16T13:25:34;2.95;;;1.48;;
31368;SDS011;18004;48.416;10.066;2023-01-16T13:30:57;5.70;;;1.83;;
31368;SDS011;18004;48.416;10.066;2023-01-16T13:33:31;2.13;;;1.35;;
31368;SDS011;18004;48.416;10.066;2023-01-16T13:36:03;14.13;;;1.38;;
31368;SDS011;18004;48.416;10.066;2023-01-16T13:41:42;1.70;;;0.73;;
31368;SDS011;18004;48.416;10.066;2023-01-16T13:44:17;0.73;;;0.73;;
31368;SDS011;18004;48.416;10.066;2023-01-16T13:47:08;1.45;;;0.70;;
31368;SDS011;18004;48.416;10.066;2023-01-16T13:49:41;1.58;;;0.75;;
31368;SDS011;18004;48.416;10.066;2023-01-16T13:52:20;1.25;;;0.82;;
31368;SDS011;18004;48.416;10.066;2023-01-16T13:54:50;9.82;;;1.15;;
31368;SDS011;18004;48.416;10.066;2023-01-16T13:57:21;1.02;;;0.70;;
31368;SDS011;18004;48.416;10.066;2023-01-16T13:59:51;1.35;;;0.88;;
31368;SDS011;18004;48.416;10.066;2023-01-16T14:14:14;1.88;;;1.02;;
31368;SDS011;18004;48.416;10.066;2023-01-16T14:17:12;1.60;;;0.63;;
31368;SDS011;18004;48.416;10.066;2023-01-16T14:22:40;1.27;;;0.77;;
31368;SDS011;18004;48.416;10.066;2023-01-16T14:25:25;4.35;;;0.98;;
31368;SDS011;18004;48.416;10.066;2023-01-16T14:27:53;0.68;;;0.55;;
31368;SDS011;18004;48.416;10.066;2023-01-16T14:30:23;2.78;;;1.23;;
31368;SDS011;18004;48.416;10.066;2023-01-16T14:32:55;1.27;;;0.90;;
31368;SDS011;18004;48.416;10.066;2023-01-16T14:35:24;2.20;;;0.90;;
31368;SDS011;18004;48.416;10.066;2023-01-16T14:38:00;7.60;;;1.90;;
31368;SDS011;18004;48.416;10.066;2023-01-16T14:40:38;7.63;;;2.20;;
31368;SDS011;18004;48.416;10.066;2023-01-16T14:43:31;2.70;;;1.48;;
31368;SDS011;18004;48.416;10.066;2023-01-16T14:58:26;2.50;;;1.58;;
31368;SDS011;18004;48.416;10.066;2023-01-16T15:01:14;3.92;;;1.42;;
31368;SDS011;18004;48.416;10.066;2023-01-16T15:04:12;4.15;;;1.67;;
31368;SDS011;18004;48.416;10.066;2023-01-16T15:06:44;3.45;;;1.70;;
31368;SDS011;18004;48.416;10.066;2023-01-16T15:09:16;2.00;;;1.10;;
31368;SDS011;18004;48.416;10.066;2023-01-16T15:11:50;4.25;;;1.92;;
31368;SDS011;18004;48.416;10.066;2023-01-16T15:14:21;1.45;;;0.80;;
31368;SDS011;18004;48.416;10.066;2023-01-16T15:17:12;4.82;;;1.30;;
31368;SDS011;18004;48.416;10.066;2023-01-16T15:22:48;0.60;;;0.40;;
31368;SDS011;18004;48.416;10.066;2023-01-16T15:25:23;0.77;;;0.30;;
31368;SDS011;18004;48.416;10.066;2023-01-16T15:30:59;0.30;;;0.30;;
31368;SDS011;18004;48.416;10.066;2023-01-16T15:33:29;0.63;;;0.50;;
31368;SDS011;18004;48.416;10.066;2023-01-16T15:38:56;0.70;;;0.50;;
31368;SDS011;18004;48.416;10.066;2023-01-16T15:41:28;1.98;;;0.40;;
31368;SDS011;18004;48.416;10.066;2023-01-16T15:44:16;0.22;;;0.22;;
31368;SDS011;18004;48.416;10.066;2023-01-16T15:49:41;0.40;;;0.40;;
31368;SDS011;18004;48.416;10.066;2023-01-16T15:52:16;0.98;;;0.50;;
31368;SDS011;18004;48.416;10.066;2023-01-16T15:54:42;3.45;;;0.52;;
31368;SDS011;18004;48.416;10.066;2023-01-16T15:57:13;1.98;;;0.57;;
31368;SDS011;18004;48.416;10.066;2023-01-16T15:59:49;1.60;;;0.95;;
31368;SDS011;18004;48.416;10.066;2023-01-16T16:02:17;1.20;;;0.60;;
31368;SDS011;18004;48.416;10.066;2023-01-16T16:04:53;2.72;;;1.15;;
31368;SDS011;18004;48.416;10.066;2023-01-16T16:07:22;5.07;;;0.90;;
31368;SDS011;18004;48.416;10.066;2023-01-16T16:09:49;1.15;;;0.93;;
31368;SDS011;18004;48.416;10.066;2023-01-16T16:12:19;1.20;;;0.57;;
31368;SDS011;18004;48.416;10.066;2023-01-16T16:14:46;1.55;;;0.80;;
31368;SDS011;18004;48.416;10.066;2023-01-16T16:17:31;1.38;;;0.90;;
31368;SDS011;18004;48.416;10.066;2023-01-16T16:20:39;1.30;;;0.70;;
31368;SDS011;18004;48.416;10.066;2023-01-16T16:25:48;1.95;;;0.90;;
31368;SDS011;18004;48.416;10.066;2023-01-16T16:31:15;0.60;;;0.52;;
31368;SDS011;18004;48.416;10.066;2023-01-16T16:36:38;1.35;;;0.70;;
31368;SDS011;18004;48.416;10.066;2023-01-16T16:47:36;3.60;;;1.38;;
31368;SDS011;18004;48.416;10.066;2023-01-16T16:52:52;2.63;;;0.70;;
31368;SDS011;18004;48.416;10.066;2023-01-16T16:55:29;3.00;;;1.95;;
31368;SDS011;18004;48.416;10.066;2023-01-16T16:57:59;0.63;;;0.52;;
31368;SDS011;18004;48.416;10.066;2023-01-16T17:00:28;1.00;;;0.70;;
31368;SDS011;18004;48.416;10.066;2023-01-16T17:02:57;1.17;;;0.70;;
31368;SDS011;18004;48.416;10.066;2023-01-16T17:05:29;0.60;;;0.50;;
31368;SDS011;18004;48.416;10.066;2023-01-16T17:07:56;0.57;;;0.30;;
31368;SDS011;18004;48.416;10.066;2023-01-16T17:10:22;0.52;;;0.30;;
31368;SDS011;18004;48.416;10.066;2023-01-16T17:12:48;1.52;;;0.45;;
31368;SDS011;18004;48.416;10.066;2023-01-16T17:15:14;1.17;;;0.30;;
31368;SDS011;18004;48.416;10.066;2023-01-16T17:17:43;1.65;;;0.70;;
31368;SDS011;18004;48.416;10.066;2023-01-16T17:22:38;8.40;;;0.32;;
31368;SDS011;18004;48.416;10.066;2023-01-16T17:25:05;0.80;;;0.52;;
31368;SDS011;18004;48.416;10.066;2023-01-16T17:27:36;0.68;;;0.50;;
31368;SDS011;18004;48.416;10.066;2023-01-16T17:30:03;0.90;;;0.50;;
31368;SDS011;18004;48.416;10.066;2023-01-16T17:32:29;0.50;;;0.50;;
31368;SDS011;18004;48.416;10.066;2023-01-16T17:34:56;0.50;;;0.40;;
31368;SDS011;18004;48.416;10.066;2023-01-16T17:37:22;1.30;;;0.40;;
31368;SDS011;18004;48.416;10.066;2023-01-16T17:39:48;0.30;;;0.30;;
31368;SDS011;18004;48.416;10.066;2023-01-16T17:42:14;0.40;;;0.40;;
31368;SDS011;18004;48.416;10.066;2023-01-16T17:44:40;1.75;;;0.80;;
31368;SDS011;18004;48.416;10.066;2023-01-16T17:47:24;0.73;;;0.40;;
31368;SDS011;18004;48.416;10.066;2023-01-16T17:49:52;0.45;;;0.40;;
31368;SDS011;18004;48.416;10.066;2023-01-16T17:52:36;1.55;;;0.20;;
31368;SDS011;18004;48.416;10.066;2023-01-16T17:55:02;0.20;;;0.20;;
31368;SDS011;18004;48.416;10.066;2023-01-16T17:57:47;0.38;;;0.38;;
31368;SDS011;18004;48.416;10.066;2023-01-16T18:00:13;0.73;;;0.43;;
31368;SDS011;18004;48.416;10.066;2023-01-16T18:02:39;0.68;;;0.50;;
31368;SDS011;18004;48.416;10.066;2023-01-16T18:05:05;0.30;;;0.30;;